createdAt,value
2022-12-17T00:02:43.767Z,24.65
2022-12-17T00:08:04.014Z,21.33
2022-12-17T00:13:24.625Z,23.05
2022-12-17T00:18:44.978Z,22.58
2022-12-17T00:24:06.421Z,22.20
2022-12-17T00:29:26.883Z,21.83
2022-12-17T00:34:47.533Z,20.48
2022-12-17T00:40:07.937Z,23.48
2022-12-17T00:45:28.499Z,21.80
2022-12-17T00:50:49.021Z,20.55
2022-12-17T00:56:09.684Z,21.65
2022-12-17T01:01:30.214Z,21.65
2022-12-17T01:06:50.596Z,20.80
2022-12-17T01:12:11.099Z,21.65
2022-12-17T01:17:31.706Z,20.75
2022-12-17T01:22:52.134Z,22.58
2022-12-17T01:28:12.536Z,21.85
2022-12-17T01:33:33.222Z,21.85
2022-12-17T01:38:53.987Z,23.58
2022-12-17T01:44:14.591Z,23.42
2022-12-17T01:49:35.963Z,25.35
2022-12-17T01:54:57.858Z,26.60
2022-12-17T02:00:25.481Z,27.67
2022-12-17T02:05:56.697Z,25.58
2022-12-17T02:11:26.470Z,28.63
2022-12-17T02:17:23.054Z,26.90
2022-12-17T02:23:02.661Z,28.70
2022-12-17T02:28:23.242Z,31.92
2022-12-17T02:33:43.842Z,31.42
2022-12-17T02:39:04.399Z,35.45
2022-12-17T02:44:25.988Z,29.80
2022-12-17T02:49:46.414Z,24.38
2022-12-17T02:55:06.972Z,20.58
2022-12-17T03:00:27.777Z,19.40
2022-12-17T03:05:48.305Z,21.55
2022-12-17T03:11:08.747Z,20.75
2022-12-17T03:16:37.102Z,20.65
2022-12-17T03:21:58.129Z,20.20
2022-12-17T03:27:18.679Z,22.23
2022-12-17T03:32:39.189Z,33.35
2022-12-17T03:37:59.602Z,22.58
2022-12-17T03:43:49.954Z,22.15
2022-12-17T03:49:10.155Z,20.35
2022-12-17T03:54:30.496Z,19.88
2022-12-17T03:59:50.910Z,19.45
2022-12-17T04:05:16.586Z,18.83
2022-12-17T04:10:40.284Z,20.25
2022-12-17T04:16:00.779Z,21.60
2022-12-17T04:21:21.176Z,23.15
2022-12-17T04:26:41.634Z,18.65
2022-12-17T04:32:02.157Z,22.23
2022-12-17T04:37:22.590Z,19.45
2022-12-17T04:42:43.078Z,20.80
2022-12-17T04:48:03.481Z,22.40
2022-12-17T04:53:25.414Z,21.90
2022-12-17T04:58:45.775Z,17.88
2022-12-17T05:04:06.198Z,18.58
2022-12-17T05:09:26.702Z,20.35
2022-12-17T05:14:47.042Z,19.70
2022-12-17T05:20:07.643Z,19.85
2022-12-17T05:25:28.087Z,18.00
2022-12-17T05:30:48.492Z,17.58
2022-12-17T05:36:08.901Z,19.70
2022-12-17T05:41:29.401Z,19.55
2022-12-17T05:46:49.860Z,18.75
2022-12-17T05:52:10.065Z,18.58
2022-12-17T05:57:30.414Z,17.35
2022-12-17T06:02:51.070Z,14.80
2022-12-17T06:08:11.420Z,14.18
2022-12-17T06:13:32.047Z,13.90
2022-12-17T06:18:53.165Z,13.15
2022-12-17T06:24:13.594Z,12.57
2022-12-17T06:29:33.967Z,12.90
2022-12-17T06:34:54.557Z,13.98
2022-12-17T06:40:14.702Z,14.23
2022-12-17T06:45:35.227Z,15.80
2022-12-17T06:50:57.088Z,15.50
2022-12-17T06:56:18.217Z,14.90
2022-12-17T07:01:38.799Z,13.15
2022-12-17T07:06:58.917Z,14.85
2022-12-17T07:12:19.380Z,13.68
2022-12-17T07:17:39.866Z,14.63
2022-12-17T07:23:00.289Z,14.27
2022-12-17T07:28:20.780Z,13.43
2022-12-17T07:33:41.286Z,12.95
2022-12-17T07:39:01.568Z,15.73
2022-12-17T07:44:22.024Z,14.75
2022-12-17T07:49:42.485Z,15.80
2022-12-17T07:55:02.929Z,16.63
2022-12-17T08:00:24.114Z,16.13
2022-12-17T08:05:44.629Z,15.18
2022-12-17T08:11:07.947Z,17.80
2022-12-17T08:16:28.556Z,16.73
2022-12-17T08:21:49.108Z,15.27
2022-12-17T08:27:09.771Z,17.48
2022-12-17T08:32:30.356Z,17.83
2022-12-17T08:37:51.303Z,20.20
2022-12-17T08:43:17.870Z,20.13
2022-12-17T08:48:38.284Z,20.00
2022-12-17T08:53:58.665Z,18.00
2022-12-17T08:59:20.127Z,19.63
2022-12-17T09:04:40.679Z,18.05
2022-12-17T09:10:00.981Z,18.90
2022-12-17T09:15:21.427Z,18.50
2022-12-17T09:20:41.944Z,17.88
2022-12-17T09:26:02.477Z,17.88
2022-12-17T09:31:22.974Z,18.83
2022-12-17T09:36:49.494Z,18.08
2022-12-17T09:42:51.711Z,16.58
2022-12-17T09:48:29.430Z,17.73
2022-12-17T09:54:03.490Z,17.02
2022-12-17T09:59:23.923Z,17.27
2022-12-17T10:04:59.377Z,17.67
2022-12-17T10:10:30.830Z,16.80
2022-12-17T10:15:51.372Z,16.27
2022-12-17T10:21:14.440Z,15.73
2022-12-17T10:26:55.155Z,16.02
2022-12-17T10:32:26.606Z,15.48
2022-12-17T10:37:47.063Z,15.27
2022-12-17T10:43:07.650Z,15.13
2022-12-17T10:48:45.574Z,15.15
2022-12-17T10:54:10.704Z,14.27
2022-12-17T10:59:52.300Z,16.60
2022-12-17T11:05:12.948Z,15.20
2022-12-17T11:10:38.101Z,15.25
2022-12-17T11:16:09.340Z,14.93
2022-12-17T11:21:39.646Z,14.25
2022-12-17T11:27:02.123Z,16.40
2022-12-17T11:32:40.583Z,15.63
2022-12-17T11:38:32.622Z,16.20
2022-12-17T11:44:07.842Z,14.93
2022-12-17T11:49:48.839Z,13.40
2022-12-17T11:55:18.101Z,15.20
2022-12-17T12:00:40.292Z,13.98
2022-12-17T12:06:13.385Z,13.45
2022-12-17T12:11:45.819Z,12.90
2022-12-17T12:17:38.096Z,12.77
2022-12-17T12:22:58.520Z,12.55
2022-12-17T12:28:34.059Z,13.75
2022-12-17T12:34:23.361Z,12.98
2022-12-17T12:40:01.963Z,12.40
2022-12-17T12:45:48.360Z,13.10
2022-12-17T12:51:30.771Z,13.68
2022-12-17T12:56:55.656Z,13.95
2022-12-17T13:02:16.332Z,15.13
2022-12-17T13:07:36.284Z,13.30
2022-12-17T13:12:46.251Z,14.70
2022-12-17T13:18:15.398Z,13.25
2022-12-17T13:23:30.919Z,15.60
2022-12-17T13:28:39.797Z,13.68
2022-12-17T13:34:07.819Z,14.38
2022-12-17T13:39:30.481Z,14.48
2022-12-17T13:44:45.943Z,14.02
2022-12-17T13:50:24.367Z,14.25
2022-12-17T13:55:21.158Z,13.48
2022-12-17T14:00:25.038Z,14.75
2022-12-17T14:05:37.188Z,14.23
2022-12-17T14:10:47.457Z,13.60
2022-12-17T14:15:52.809Z,14.07
2022-12-17T14:20:56.081Z,13.00
2022-12-17T14:25:58.505Z,14.13
2022-12-17T14:31:28.229Z,12.20
2022-12-17T14:36:31.260Z,14.23
2022-12-17T14:41:57.343Z,12.37
2022-12-17T14:47:18.706Z,15.05
2022-12-17T14:52:46.478Z,15.30
2022-12-17T14:57:49.237Z,15.40
2022-12-17T15:02:54.740Z,16.10
2022-12-17T15:07:57.088Z,17.00
2022-12-17T15:12:58.801Z,17.05
2022-12-17T15:18:00.500Z,18.52
2022-12-17T15:23:02.473Z,18.58
2022-12-17T15:28:04.383Z,17.92
2022-12-17T15:33:07.229Z,17.58
2022-12-17T15:38:09.965Z,18.17
2022-12-17T15:43:12.607Z,13.70
2022-12-17T15:48:17.290Z,17.25
2022-12-17T15:53:19.027Z,18.02
2022-12-17T15:58:20.751Z,18.35
2022-12-17T16:03:23.051Z,17.85
2022-12-17T16:08:24.923Z,13.35
2022-12-17T16:13:26.570Z,19.50
2022-12-17T16:18:29.007Z,19.35
2022-12-17T16:23:30.838Z,20.40
2022-12-17T16:28:32.896Z,21.52
2022-12-17T16:33:39.070Z,20.30
2022-12-17T16:38:45.901Z,22.42
2022-12-17T16:43:48.404Z,21.20
2022-12-17T16:48:50.146Z,23.07
2022-12-17T16:53:52.254Z,23.75
2022-12-17T16:58:55.734Z,22.33
2022-12-17T17:03:58.166Z,22.00
2022-12-17T17:09:02.719Z,23.70
2022-12-17T17:14:05.397Z,23.85
2022-12-17T17:19:07.151Z,24.48
2022-12-17T17:24:21.388Z,23.63
2022-12-17T17:29:23.872Z,23.90
2022-12-17T17:34:25.557Z,24.35
2022-12-17T17:39:27.570Z,22.73
2022-12-17T17:44:29.306Z,25.60
2022-12-17T17:49:31.098Z,25.55
2022-12-17T17:54:33.170Z,24.92
2022-12-17T17:59:34.939Z,19.13
2022-12-17T18:04:36.714Z,23.67
2022-12-17T18:09:38.410Z,25.85
2022-12-17T18:14:46.697Z,24.08
2022-12-17T18:19:59.802Z,26.40
2022-12-17T18:25:01.536Z,25.00
2022-12-17T18:30:04.579Z,27.70
2022-12-17T18:40:09.011Z,23.80
2022-12-17T18:45:14.015Z,27.10
2022-12-17T18:50:15.770Z,26.80
2022-12-17T18:55:17.807Z,27.60
2022-12-17T19:00:19.565Z,28.30
2022-12-17T19:05:21.195Z,27.67
2022-12-17T19:10:23.025Z,29.20
2022-12-17T19:15:24.757Z,27.05
2022-12-17T19:20:26.541Z,27.40
2022-12-17T19:25:28.219Z,27.48
2022-12-17T19:30:30.316Z,28.65
2022-12-17T19:35:34.702Z,28.93
2022-12-17T19:40:36.433Z,30.40
2022-12-17T19:45:38.335Z,24.25
2022-12-17T19:50:41.128Z,24.13
2022-12-17T19:55:43.159Z,23.92
2022-12-17T20:00:44.941Z,24.65
2022-12-17T20:05:47.402Z,25.15
2022-12-17T20:10:49.188Z,23.73
2022-12-17T20:16:03.471Z,24.52
2022-12-17T20:21:06.288Z,25.73
2022-12-17T20:26:10.908Z,23.27
2022-12-17T20:31:13.599Z,25.58
2022-12-17T20:36:17.642Z,23.77
2022-12-17T20:41:23.271Z,24.92
2022-12-17T20:46:25.497Z,23.67
2022-12-17T20:51:29.377Z,19.90
2022-12-17T20:56:34.007Z,25.70
2022-12-17T21:01:36.596Z,23.98
2022-12-17T21:06:47.113Z,23.52
2022-12-17T21:11:49.140Z,24.60
2022-12-17T21:16:50.875Z,23.92
2022-12-17T21:21:52.578Z,25.13
2022-12-17T21:26:54.235Z,25.40
2022-12-17T21:31:55.933Z,24.80
2022-12-17T21:36:57.599Z,23.77
2022-12-17T21:42:17.982Z,24.27
2022-12-17T21:47:19.747Z,22.52
2022-12-17T21:52:21.511Z,22.15
2022-12-17T21:57:23.565Z,20.58
2022-12-17T22:02:25.327Z,18.20
2022-12-17T22:07:29.118Z,20.70
2022-12-17T22:13:00.780Z,21.08
2022-12-17T22:18:02.591Z,19.52
2022-12-17T22:23:04.869Z,19.95
2022-12-17T22:28:06.838Z,21.65
2022-12-17T22:33:39.225Z,20.85
2022-12-17T22:42:24.047Z,20.73
2022-12-17T22:44:52.095Z,21.38
2022-12-17T22:49:15.642Z,19.38
2022-12-17T22:54:17.427Z,22.48
2022-12-17T22:59:19.856Z,20.87
2022-12-17T23:04:21.528Z,20.97
2022-12-17T23:09:24.057Z,23.83
2022-12-17T23:14:26.744Z,22.15
2022-12-17T23:19:28.539Z,21.40
2022-12-17T23:24:30.303Z,23.17
2022-12-17T23:29:31.917Z,21.73
2022-12-17T23:34:33.615Z,21.75
2022-12-17T23:39:35.446Z,22.10
2022-12-17T23:44:37.054Z,21.52
2022-12-17T23:49:38.793Z,20.00
2022-12-17T23:54:40.556Z,19.83
2022-12-17T23:59:42.207Z,22.05
